Impacts TAF Board
For situational awareness. Not to be used for flight planning purposes.
IDs:

KBHM - Birmingham Intl, AL, US

Issued at 1720 UTC 02 Oct 2022
Updated at 2226 UTC 02 Oct 2022
Potential Impact None Slight Moderate High
Time<<03/23Z 04/00Z 04/01Z 04/02Z 04/03Z 04/04Z 04/05Z 04/06Z 04/07Z 04/08Z 04/09Z 04/10Z 04/11Z
Type
VIS
CIG
Cover
FltCat
WX
WDir
WSpd
WGst
WSHgt
WSDir
WSSpd
Raw TAF
KBHM 021720Z 0218/0318 35008G16KT P6SM SKC
  FM030200 02006KT P6SM SKC
  FM031500 06008KT P6SM FEW100


METAR Board
Radar Display
Forecast Discussion
For situational awareness. Not to be used for flight planning purposes.